createdAt,value
2023-04-24T00:01:35.113Z,4.33
2023-04-24T00:06:37.686Z,13.07
2023-04-24T00:11:41.181Z,5.73
2023-04-24T00:16:42.977Z,4.93
2023-04-24T00:21:45.126Z,3.97
2023-04-24T00:26:48.430Z,4.70
2023-04-24T00:31:50.209Z,5.50
2023-04-24T00:36:51.912Z,4.20
2023-04-24T00:41:55.061Z,5.53
2023-04-24T00:46:57.683Z,5.70
2023-04-24T00:51:59.507Z,4.03
2023-04-24T00:57:03.758Z,5.23
2023-04-24T01:02:05.501Z,4.73
2023-04-24T01:07:07.553Z,5.73
2023-04-24T01:12:10.694Z,4.47
2023-04-24T01:17:12.452Z,5.13
2023-04-24T01:22:17.193Z,5.70
2023-04-24T01:27:19.182Z,6.87
2023-04-24T01:32:21.032Z,4.30
2023-04-24T01:37:24.126Z,4.97
2023-04-24T01:42:26.408Z,5.87
2023-04-24T01:47:28.728Z,4.17
2023-04-24T01:52:31.825Z,5.50
2023-04-24T01:57:34.753Z,4.53
2023-04-24T02:02:36.707Z,4.57
2023-04-24T02:07:40.363Z,4.20
2023-04-24T02:12:43.121Z,4.33
2023-04-24T02:17:44.844Z,8.23
2023-04-24T02:22:48.363Z,6.77
2023-04-24T02:27:50.105Z,4.30
2023-04-24T02:32:51.888Z,4.40
2023-04-24T02:37:54.953Z,4.47
2023-04-24T02:42:56.787Z,5.73
2023-04-24T02:47:58.613Z,5.37
2023-04-24T02:53:01.764Z,5.47
2023-04-24T02:58:03.684Z,5.33
2023-04-24T03:03:06.293Z,7.10
2023-04-24T03:08:10.132Z,4.43
2023-04-24T03:13:11.966Z,6.17
2023-04-24T03:18:13.679Z,7.03
2023-04-24T03:23:17.221Z,5.27
2023-04-24T03:28:19.345Z,5.90
2023-04-24T03:33:21.495Z,5.20
2023-04-24T03:38:24.974Z,5.60
2023-04-24T03:43:26.889Z,7.33
2023-04-24T03:48:28.992Z,8.17
2023-04-24T03:53:32.477Z,8.20
2023-04-24T03:58:34.389Z,7.53
2023-04-24T04:03:36.409Z,4.90
2023-04-24T04:08:39.646Z,5.33
2023-04-24T04:13:41.895Z,5.03
2023-04-24T04:18:43.856Z,5.60
2023-04-24T04:23:47.384Z,11.07
2023-04-24T04:28:49.105Z,5.50
2023-04-24T04:33:51.287Z,7.37
2023-04-24T04:38:54.747Z,4.27
2023-04-24T04:43:57.153Z,5.13
2023-04-24T04:48:59.093Z,4.13
2023-04-24T04:54:02.925Z,4.77
2023-04-24T04:59:05.240Z,3.60
2023-04-24T05:04:07.703Z,3.90
2023-04-24T05:09:11.116Z,2.80
2023-04-24T05:14:13.282Z,2.93
2023-04-24T05:19:15.678Z,2.20
2023-04-24T05:24:19.387Z,2.03
2023-04-24T05:29:21.606Z,1.57
2023-04-24T05:34:23.709Z,3.43
2023-04-24T05:39:26.843Z,1.33
2023-04-24T05:44:28.846Z,1.70
2023-04-24T05:49:30.696Z,1.60
2023-04-24T05:54:33.969Z,1.93
2023-04-24T05:59:38.645Z,1.13
2023-04-24T06:04:41.172Z,2.13
2023-04-24T06:09:44.729Z,1.20
2023-04-24T06:14:46.832Z,0.90
2023-04-24T06:19:48.951Z,1.33
2023-04-24T06:24:52.446Z,1.27
2023-04-24T06:29:54.601Z,0.67
2023-04-24T06:34:57.966Z,0.93
2023-04-24T06:40:02.608Z,0.57
2023-04-24T06:45:05.069Z,1.67
2023-04-24T06:50:07.723Z,1.60
2023-04-24T06:55:11.413Z,0.53
2023-04-24T07:00:14.866Z,0.60
2023-04-24T07:05:17.012Z,0.70
2023-04-24T07:10:20.250Z,1.17
2023-04-24T07:15:22.501Z,2.50
2023-04-24T07:20:24.783Z,1.73
2023-04-24T07:25:27.929Z,1.43
2023-04-24T07:30:29.602Z,0.60
2023-04-24T07:35:31.359Z,1.00
2023-04-24T07:40:34.801Z,0.57
2023-04-24T07:45:36.990Z,1.47
2023-04-24T07:50:39.074Z,1.33
2023-04-24T07:55:42.497Z,1.80
2023-04-24T08:00:44.448Z,0.57
2023-04-24T08:05:46.456Z,2.50
2023-04-24T08:10:50.117Z,8.87
2023-04-24T08:15:52.283Z,7.23
2023-04-24T08:20:54.244Z,1.63
2023-04-24T08:25:57.625Z,2.10
2023-04-24T08:30:59.679Z,1.97
2023-04-24T08:36:02.018Z,4.43
2023-04-24T08:41:06.182Z,1.53
2023-04-24T08:46:11.907Z,1.47
2023-04-24T08:51:14.363Z,0.97
2023-04-24T08:56:17.628Z,0.90
2023-04-24T09:01:21.519Z,3.30
2023-04-24T09:06:24.694Z,0.80
2023-04-24T09:11:28.473Z,0.70
2023-04-24T09:16:30.925Z,1.27
2023-04-24T09:21:34.034Z,1.20
2023-04-24T09:26:37.861Z,0.40
2023-04-24T09:31:40.076Z,1.03
2023-04-24T09:36:43.987Z,0.60
2023-04-24T09:41:48.140Z,2.13
2023-04-24T09:46:52.304Z,2.37
2023-04-24T09:52:04.340Z,3.80
2023-04-24T09:57:09.173Z,1.20
2023-04-24T10:02:19.092Z,1.67
2023-04-24T10:07:21.421Z,1.37
2023-04-24T10:12:26.215Z,4.50
2023-04-24T10:17:29.769Z,3.23
2023-04-24T10:22:32.453Z,5.00
2023-04-24T10:27:37.089Z,1.43
2023-04-24T10:32:39.177Z,5.10
2023-04-24T10:37:45.030Z,0.40
2023-04-24T10:42:52.952Z,1.47
2023-04-24T10:47:59.255Z,0.57
2023-04-24T10:53:08.083Z,0.83
2023-04-24T10:58:12.089Z,0.90
2023-04-24T11:03:29.282Z,0.93
2023-04-24T11:08:34.452Z,0.53
2023-04-24T11:14:11.808Z,1.60
2023-04-24T11:19:23.602Z,1.00
2023-04-24T11:24:31.025Z,0.50
2023-04-24T11:29:45.352Z,1.37
2023-04-24T11:34:49.174Z,0.40
2023-04-24T11:39:55.405Z,0.70
2023-04-24T11:44:59.144Z,1.03
2023-04-24T11:50:02.512Z,0.50
2023-04-24T11:55:05.814Z,0.50
2023-04-24T12:00:16.547Z,3.27
2023-04-24T12:05:23.247Z,0.47
2023-04-24T12:10:27.843Z,0.70
2023-04-24T12:15:31.184Z,0.60
2023-04-24T12:20:34.141Z,0.50
2023-04-24T12:25:36.389Z,0.50
2023-04-24T12:30:43.347Z,1.03
2023-04-24T12:35:45.675Z,0.50
2023-04-24T12:40:47.799Z,0.70
2023-04-24T12:45:51.337Z,0.50
2023-04-24T12:50:53.345Z,1.43
2023-04-24T12:55:55.496Z,0.93
2023-04-24T13:00:58.879Z,2.13
2023-04-24T13:06:01.150Z,0.50
2023-04-24T13:11:03.526Z,0.50
2023-04-24T13:16:07.535Z,0.80
2023-04-24T13:21:09.950Z,0.50
2023-04-24T13:26:12.176Z,0.40
2023-04-24T13:31:15.794Z,0.80
2023-04-24T13:36:18.110Z,0.60
2023-04-24T13:41:20.234Z,1.37
2023-04-24T13:46:23.522Z,0.40
2023-04-24T13:51:27.155Z,0.50
2023-04-24T13:56:29.018Z,0.93
2023-04-24T14:01:32.559Z,0.40
2023-04-24T14:06:35.081Z,0.47
2023-04-24T14:11:36.957Z,0.67
2023-04-24T14:16:40.653Z,0.93
2023-04-24T14:21:42.908Z,0.60
2023-04-24T14:26:45.094Z,0.50
2023-04-24T14:31:48.466Z,2.20
2023-04-24T14:36:50.817Z,0.60
2023-04-24T14:41:53.048Z,0.60
2023-04-24T14:46:56.202Z,1.60
2023-04-24T14:51:57.928Z,2.00
2023-04-24T14:56:59.725Z,0.80
2023-04-24T15:02:15.426Z,1.63
2023-04-24T15:07:19.761Z,5.03
2023-04-24T15:12:22.645Z,0.57
2023-04-24T15:17:26.172Z,0.73
2023-04-24T15:22:28.193Z,0.60
2023-04-24T15:27:40.699Z,1.00
2023-04-24T15:32:44.245Z,0.57
2023-04-24T15:37:46.583Z,1.27
2023-04-24T15:42:48.690Z,0.60
2023-04-24T15:47:52.325Z,1.20
2023-04-24T15:52:54.581Z,0.80
2023-04-24T15:57:56.721Z,0.77
2023-04-24T16:03:00.625Z,0.63
2023-04-24T16:08:03.317Z,0.87
2023-04-24T16:13:05.537Z,3.97
2023-04-24T16:18:08.718Z,1.60
2023-04-24T16:23:10.915Z,0.50
2023-04-24T16:28:13.053Z,0.60
2023-04-24T16:33:16.597Z,0.90
2023-04-24T16:38:18.715Z,1.17
2023-04-24T16:43:20.882Z,0.50
2023-04-24T16:48:24.251Z,0.60
2023-04-24T16:53:26.549Z,1.23
2023-04-24T16:58:28.660Z,0.87
2023-04-24T17:03:31.922Z,0.73
2023-04-24T17:08:34.474Z,0.70
2023-04-24T17:13:36.683Z,1.00
2023-04-24T17:18:40.479Z,0.40
2023-04-24T17:23:42.629Z,0.70
2023-04-24T17:28:44.802Z,0.70
2023-04-24T17:33:49.026Z,0.40
2023-04-24T17:38:51.182Z,0.47
2023-04-24T17:43:53.065Z,0.57
2023-04-24T17:48:56.665Z,0.60
2023-04-24T17:53:58.801Z,0.60
2023-04-24T17:59:00.561Z,0.70
2023-04-24T18:04:04.327Z,0.40
2023-04-24T18:09:07.263Z,0.60
2023-04-24T18:14:09.393Z,0.30
2023-04-24T18:19:12.860Z,0.33
2023-04-24T18:24:15.243Z,0.17
2023-04-24T18:29:16.981Z,0.40
2023-04-24T18:34:20.468Z,0.23
2023-04-24T18:39:23.160Z,0.20
2023-04-24T18:44:25.409Z,0.40
2023-04-24T18:49:28.860Z,2.43
2023-04-24T18:54:31.184Z,0.30
2023-04-24T18:59:33.302Z,0.27
2023-04-24T19:04:36.559Z,0.30
2023-04-24T19:09:39.299Z,0.73
2023-04-24T19:14:41.679Z,1.23
2023-04-24T19:19:44.778Z,1.77
2023-04-24T19:24:47.258Z,0.80
2023-04-24T19:29:49.386Z,1.33
2023-04-24T19:34:52.515Z,1.37
2023-04-24T19:39:54.834Z,0.77
2023-04-24T19:44:56.989Z,2.37
2023-04-24T19:50:00.516Z,1.37
2023-04-24T19:55:02.971Z,1.63
2023-04-24T20:00:05.888Z,1.07
2023-04-24T20:05:10.085Z,3.20
2023-04-24T20:10:12.163Z,1.30
2023-04-24T20:15:14.325Z,1.57
2023-04-24T20:20:17.487Z,1.60
2023-04-24T20:25:19.683Z,1.53
2023-04-24T20:30:21.998Z,2.10
2023-04-24T20:35:25.622Z,1.33
2023-04-24T20:40:28.728Z,1.33
2023-04-24T20:45:31.470Z,1.93
2023-04-24T20:50:35.144Z,2.53
2023-04-24T20:55:37.105Z,2.03
2023-04-24T21:00:39.901Z,2.83
2023-04-24T21:05:43.872Z,1.73
2023-04-24T21:10:46.829Z,5.13
2023-04-24T21:15:49.326Z,2.30
2023-04-24T21:20:53.064Z,5.20
2023-04-24T21:25:55.827Z,1.67
2023-04-24T21:30:58.202Z,2.33
2023-04-24T21:36:01.975Z,2.80
2023-04-24T21:41:04.084Z,3.07
2023-04-24T21:46:06.320Z,3.83
2023-04-24T21:51:09.836Z,4.67
2023-04-24T21:56:12.647Z,1.77
2023-04-24T22:01:14.728Z,2.53
2023-04-24T22:06:18.012Z,3.63
2023-04-24T22:11:26.671Z,1.60
2023-04-24T22:16:31.180Z,3.73
2023-04-24T22:21:35.036Z,2.03
2023-04-24T22:26:36.952Z,5.90
2023-04-24T22:31:39.142Z,2.43
2023-04-24T22:36:42.979Z,2.27
2023-04-24T22:41:44.877Z,1.73
2023-04-24T22:46:46.842Z,2.50
2023-04-24T22:51:49.945Z,3.00
2023-04-24T22:56:52.158Z,1.70
2023-04-24T23:01:54.078Z,2.47
2023-04-24T23:06:57.615Z,2.43
2023-04-24T23:12:00.026Z,1.77
2023-04-24T23:17:02.596Z,2.90
2023-04-24T23:22:06.112Z,1.57
2023-04-24T23:27:07.974Z,1.67
2023-04-24T23:32:10.022Z,3.40
2023-04-24T23:37:13.530Z,1.77
2023-04-24T23:42:15.294Z,1.83
2023-04-24T23:47:17.255Z,3.33
2023-04-24T23:52:20.971Z,2.63
2023-04-24T23:57:23.101Z,4.33
